createdAt,value
2018-09-19T00:01:17.797Z,22.80
2018-09-19T00:03:58.791Z,22.80
2018-09-19T00:06:39.756Z,22.80
2018-09-19T00:09:20.670Z,22.80
2018-09-19T00:12:01.295Z,22.80
2018-09-19T00:14:42.154Z,22.80
2018-09-19T00:17:23.243Z,22.90
2018-09-19T00:20:03.767Z,22.90
2018-09-19T00:22:44.404Z,23.00
2018-09-19T00:25:25.412Z,23.00
2018-09-19T00:28:06.300Z,23.10
2018-09-19T00:30:47.267Z,23.10
2018-09-19T00:33:27.979Z,23.10
2018-09-19T00:36:09.317Z,23.10
2018-09-19T00:38:50.475Z,23.20
2018-09-19T00:41:31.232Z,23.20
2018-09-19T00:44:12.644Z,23.30
2018-09-19T00:46:53.352Z,23.30
2018-09-19T00:49:34.376Z,23.30
2018-09-19T00:52:15.102Z,23.20
2018-09-19T00:54:55.778Z,23.20
2018-09-19T00:57:36.301Z,23.20
2018-09-19T01:00:17.088Z,23.20
2018-09-19T01:02:57.864Z,23.10
2018-09-19T01:05:39.223Z,23.10
2018-09-19T01:08:20.096Z,23.10
2018-09-19T01:11:00.832Z,23.20
2018-09-19T01:13:41.587Z,23.20
2018-09-19T01:16:22.496Z,23.20
2018-09-19T01:19:03.477Z,23.20
2018-09-19T01:21:44.238Z,23.20
2018-09-19T01:24:25.512Z,23.20
2018-09-19T01:27:06.012Z,23.20
2018-09-19T01:29:46.836Z,23.20
2018-09-19T01:32:27.424Z,23.20
2018-09-19T01:35:08.224Z,23.20
2018-09-19T01:37:48.951Z,23.20
2018-09-19T01:40:29.605Z,23.20
2018-09-19T01:43:10.523Z,23.30
2018-09-19T01:45:51.463Z,23.30
2018-09-19T01:48:32.220Z,23.30
2018-09-19T01:51:13.201Z,23.30
2018-09-19T01:53:54.080Z,23.30
2018-09-19T01:56:34.907Z,23.20
2018-09-19T01:59:16.471Z,23.20
2018-09-19T02:01:57.293Z,23.20
2018-09-19T02:04:38.162Z,23.20
2018-09-19T02:07:19.152Z,23.20
2018-09-19T02:09:59.946Z,23.10
2018-09-19T02:12:40.800Z,23.00
2018-09-19T02:15:22.188Z,23.00
2018-09-19T02:18:02.931Z,22.90
2018-09-19T02:20:43.992Z,22.90
2018-09-19T02:23:24.863Z,22.80
2018-09-19T02:26:06.081Z,22.80
2018-09-19T02:28:46.718Z,22.70
2018-09-19T02:31:27.604Z,22.70
2018-09-19T02:34:08.556Z,22.70
2018-09-19T02:36:49.335Z,22.60
2018-09-19T02:39:30.273Z,22.60
2018-09-19T02:42:11.006Z,22.60
2018-09-19T02:44:52.128Z,22.70
2018-09-19T02:47:33.125Z,22.70
2018-09-19T02:50:14.440Z,22.60
2018-09-19T02:52:56.892Z,22.60
2018-09-19T02:55:37.504Z,22.60
2018-09-19T02:58:18.433Z,22.50
2018-09-19T03:00:59.184Z,22.50
2018-09-19T03:03:40.327Z,22.50
2018-09-19T03:06:21.420Z,22.40
2018-09-19T03:09:02.146Z,22.40
2018-09-19T03:11:42.656Z,22.40
2018-09-19T03:14:23.776Z,22.30
2018-09-19T03:17:04.680Z,22.30
2018-09-19T03:19:45.372Z,22.40
2018-09-19T03:22:26.243Z,22.40
2018-09-19T03:25:06.948Z,22.40
2018-09-19T03:27:47.650Z,22.40
2018-09-19T03:30:28.587Z,22.40
2018-09-19T03:33:09.383Z,22.50
2018-09-19T03:35:50.137Z,22.50
2018-09-19T03:38:31.110Z,22.50
2018-09-19T03:41:11.924Z,22.50
2018-09-19T03:43:52.548Z,22.40
2018-09-19T03:46:33.409Z,22.40
2018-09-19T03:49:14.204Z,22.40
2018-09-19T03:51:55.269Z,22.30
2018-09-19T03:54:36.378Z,22.30
2018-09-19T03:57:16.934Z,22.30
2018-09-19T03:59:58.105Z,22.30
2018-09-19T04:02:39.164Z,22.20
2018-09-19T04:05:20.296Z,22.30
2018-09-19T04:08:01.456Z,22.30
2018-09-19T04:10:42.239Z,22.30
2018-09-19T04:13:23.568Z,22.30
2018-09-19T04:16:04.308Z,22.30
2018-09-19T04:18:45.442Z,22.30
2018-09-19T04:21:26.329Z,22.30
2018-09-19T04:24:07.635Z,22.30
2018-09-19T04:26:48.525Z,22.40
2018-09-19T04:29:29.558Z,22.40
2018-09-19T04:32:10.263Z,22.40
2018-09-19T04:34:50.971Z,22.40
2018-09-19T04:37:31.764Z,22.50
2018-09-19T04:40:13.153Z,22.60
2018-09-19T04:42:53.738Z,22.60
2018-09-19T04:45:34.532Z,22.60
2018-09-19T04:48:15.259Z,22.60
2018-09-19T04:50:56.073Z,22.60
2018-09-19T04:53:36.648Z,22.60
2018-09-19T04:56:17.375Z,22.60
2018-09-19T04:58:58.339Z,22.60
2018-09-19T05:01:39.084Z,22.60
2018-09-19T05:04:20.057Z,22.60
2018-09-19T05:07:00.580Z,22.60
2018-09-19T05:09:41.327Z,22.60
2018-09-19T05:12:22.443Z,22.60
2018-09-19T05:15:03.138Z,22.60
2018-09-19T05:17:44.484Z,22.60
2018-09-19T05:20:25.920Z,22.60
2018-09-19T05:23:07.119Z,22.70
2018-09-19T05:25:47.680Z,22.70
2018-09-19T05:28:28.815Z,22.70
2018-09-19T05:31:10.045Z,22.80
2018-09-19T05:33:51.177Z,22.80
2018-09-19T05:36:32.124Z,22.80
2018-09-19T05:39:13.168Z,22.80
2018-09-19T05:41:53.689Z,22.80
2018-09-19T05:44:34.717Z,22.80
2018-09-19T05:47:15.508Z,22.80
2018-09-19T05:49:56.535Z,22.80
2018-09-19T05:52:37.314Z,22.80
2018-09-19T05:55:18.140Z,22.80
2018-09-19T05:57:58.863Z,22.80
2018-09-19T06:00:39.897Z,22.90
2018-09-19T06:03:20.716Z,22.90
2018-09-19T06:06:01.318Z,23.00
2018-09-19T06:08:42.397Z,23.10
2018-09-19T06:11:23.045Z,23.20
2018-09-19T06:14:03.985Z,23.30
2018-09-19T06:16:44.716Z,23.40
2018-09-19T06:19:25.385Z,23.60
2018-09-19T06:22:06.348Z,23.70
2018-09-19T06:24:47.351Z,23.80
2018-09-19T06:27:28.629Z,24.00
2018-09-19T06:30:09.513Z,24.10
2018-09-19T06:32:50.228Z,24.20
2018-09-19T06:35:31.449Z,24.30
2018-09-19T06:38:13.056Z,24.30
2018-09-19T06:40:53.621Z,24.40
2018-09-19T06:43:34.484Z,24.60
2018-09-19T06:46:15.707Z,24.80
2018-09-19T06:48:56.668Z,25.00
2018-09-19T06:51:37.755Z,25.20
2018-09-19T06:54:18.717Z,25.40
2018-09-19T06:56:59.390Z,25.50
2018-09-19T06:59:40.039Z,25.70
2018-09-19T07:02:20.879Z,25.80
2018-09-19T07:05:01.673Z,26.00
2018-09-19T07:07:42.552Z,26.20
2018-09-19T07:10:23.571Z,26.40
2018-09-19T07:13:04.495Z,26.50
2018-09-19T07:15:45.412Z,26.70
2018-09-19T07:18:26.563Z,26.80
2018-09-19T07:21:07.752Z,26.80
2018-09-19T07:23:48.563Z,27.00
2018-09-19T07:26:29.435Z,27.10
2018-09-19T07:29:10.139Z,27.10
2018-09-19T07:31:50.947Z,27.20
2018-09-19T07:34:32.393Z,27.30
2018-09-19T07:37:13.535Z,27.40
2018-09-19T07:39:54.249Z,27.40
2018-09-19T07:42:34.936Z,27.40
2018-09-19T07:45:16.269Z,27.50
2018-09-19T07:47:57.249Z,27.60
2018-09-19T07:50:38.608Z,27.80
2018-09-19T07:53:19.572Z,27.90
2018-09-19T07:56:00.456Z,28.00
2018-09-19T07:58:41.210Z,28.00
2018-09-19T08:01:21.992Z,28.00
2018-09-19T08:04:02.734Z,28.00
2018-09-19T08:06:43.727Z,28.00
2018-09-19T08:09:24.233Z,28.10
2018-09-19T08:12:05.356Z,28.20
2018-09-19T08:14:45.966Z,28.30
2018-09-19T08:17:26.707Z,28.40
2018-09-19T08:20:07.560Z,28.60
2018-09-19T08:22:48.659Z,28.70
2018-09-19T08:25:29.715Z,29.00
2018-09-19T08:28:10.711Z,29.30
2018-09-19T08:30:51.576Z,29.80
2018-09-19T08:33:32.333Z,30.10
2018-09-19T08:36:13.618Z,30.40
2018-09-19T08:38:54.640Z,30.70
2018-09-19T08:41:35.383Z,30.90
2018-09-19T08:44:16.144Z,30.90
2018-09-19T08:46:57.047Z,30.70
2018-09-19T08:49:37.847Z,30.50
2018-09-19T08:52:18.735Z,30.40
2018-09-19T08:54:59.777Z,30.30
2018-09-19T08:57:40.749Z,30.20
2018-09-19T09:00:21.988Z,30.10
2018-09-19T09:03:02.943Z,30.00
2018-09-19T09:05:43.944Z,29.90
2018-09-19T09:08:25.352Z,29.80
2018-09-19T09:11:06.488Z,29.70
2018-09-19T09:13:47.562Z,29.60
2018-09-19T09:16:28.742Z,29.40
2018-09-19T09:19:09.523Z,29.20
2018-09-19T09:21:50.496Z,29.00
2018-09-19T09:24:31.327Z,28.80
2018-09-19T09:27:11.968Z,28.60
2018-09-19T09:29:52.484Z,28.40
2018-09-19T09:32:33.452Z,28.30
2018-09-19T09:35:14.165Z,28.20
2018-09-19T09:37:54.931Z,28.20
2018-09-19T09:40:35.892Z,28.10
2018-09-19T09:43:17.056Z,28.20
2018-09-19T09:45:58.048Z,28.30
2018-09-19T09:48:38.879Z,28.50
2018-09-19T09:51:19.538Z,28.60
2018-09-19T09:54:00.128Z,28.60
2018-09-19T09:56:40.975Z,28.70
2018-09-19T09:59:21.776Z,28.70
2018-09-19T10:02:03.179Z,28.80
2018-09-19T10:04:44.056Z,28.90
2018-09-19T10:07:25.028Z,29.00
2018-09-19T10:10:06.139Z,29.20
2018-09-19T10:12:47.072Z,29.30
2018-09-19T10:15:28.076Z,29.60
2018-09-19T10:18:09.090Z,29.80
2018-09-19T10:20:50.352Z,30.00
2018-09-19T10:23:31.351Z,30.10
2018-09-19T10:26:12.703Z,30.20
2018-09-19T10:28:53.265Z,30.20
2018-09-19T10:31:34.351Z,30.10
2018-09-19T10:34:15.044Z,30.00
2018-09-19T10:36:55.791Z,30.00
2018-09-19T10:39:36.435Z,29.90
2018-09-19T10:42:17.647Z,29.80
2018-09-19T10:44:58.595Z,29.70
2018-09-19T10:47:39.287Z,29.70
2018-09-19T10:50:20.059Z,29.60
2018-09-19T10:53:00.804Z,29.40
2018-09-19T10:55:41.783Z,29.30
2018-09-19T10:58:22.655Z,29.30
2018-09-19T11:01:03.604Z,29.30
2018-09-19T11:03:44.300Z,29.30
2018-09-19T11:06:25.147Z,29.30
2018-09-19T11:09:06.243Z,29.30
2018-09-19T11:11:47.248Z,29.30
2018-09-19T11:14:28.027Z,29.40
2018-09-19T11:17:09.049Z,29.40
2018-09-19T11:19:49.856Z,29.40
2018-09-19T11:22:30.847Z,29.40
2018-09-19T11:25:12.032Z,29.40
2018-09-19T11:27:53.446Z,29.40
2018-09-19T11:30:34.173Z,29.40
2018-09-19T11:33:15.090Z,29.40
2018-09-19T11:35:55.759Z,29.20
2018-09-19T11:38:36.731Z,29.20
2018-09-19T11:41:17.747Z,29.10
2018-09-19T11:43:58.644Z,29.20
2018-09-19T11:46:39.388Z,29.10
2018-09-19T11:49:20.408Z,29.20
2018-09-19T11:52:01.120Z,29.30
2018-09-19T11:54:41.603Z,29.30
2018-09-19T11:57:22.144Z,29.40
2018-09-19T12:00:03.224Z,29.40
2018-09-19T12:02:43.792Z,29.40
2018-09-19T12:05:24.674Z,29.40
2018-09-19T12:08:05.351Z,29.30
2018-09-19T12:10:45.787Z,29.40
2018-09-19T12:13:26.591Z,29.30
2018-09-19T12:16:07.291Z,29.30
2018-09-19T12:18:47.958Z,29.40
2018-09-19T12:21:28.907Z,29.40
2018-09-19T12:24:09.683Z,29.40
2018-09-19T12:26:50.568Z,29.20
2018-09-19T12:29:31.568Z,29.20
2018-09-19T12:32:12.587Z,29.20
2018-09-19T12:34:53.552Z,29.20
2018-09-19T12:37:34.525Z,29.20
2018-09-19T12:40:15.543Z,29.20
2018-09-19T12:42:56.392Z,29.20
2018-09-19T12:45:37.123Z,29.20
2018-09-19T12:48:17.983Z,29.30
2018-09-19T12:50:58.844Z,29.30
2018-09-19T12:53:39.611Z,29.20
2018-09-19T12:56:20.312Z,29.20
2018-09-19T12:59:01.071Z,29.20
2018-09-19T13:01:42.167Z,29.10
2018-09-19T13:04:23.719Z,29.10
2018-09-19T13:07:04.331Z,29.10
2018-09-19T13:09:45.355Z,29.00
2018-09-19T13:12:25.997Z,29.00
2018-09-19T13:15:06.639Z,29.10
2018-09-19T13:17:47.467Z,29.20
2018-09-19T13:20:28.241Z,29.10
2018-09-19T13:23:09.276Z,29.20
2018-09-19T13:25:49.947Z,29.20
2018-09-19T13:28:30.517Z,29.10
2018-09-19T13:31:11.464Z,29.10
2018-09-19T13:33:52.464Z,29.20
2018-09-19T13:36:33.382Z,29.20
2018-09-19T13:39:14.292Z,29.10
2018-09-19T13:41:56.351Z,29.20
2018-09-19T13:44:37.659Z,29.10
2018-09-19T13:47:18.685Z,29.10
2018-09-19T13:49:59.524Z,29.30
2018-09-19T13:52:40.786Z,29.20
2018-09-19T13:55:21.731Z,29.20
2018-09-19T13:58:02.756Z,29.10
2018-09-19T14:00:43.547Z,29.10
2018-09-19T14:03:24.496Z,29.00
2018-09-19T14:06:05.286Z,29.00
2018-09-19T14:08:46.086Z,29.10
2018-09-19T14:11:26.815Z,29.00
2018-09-19T14:14:07.575Z,28.80
2018-09-19T14:16:48.313Z,28.80
2018-09-19T14:19:29.213Z,28.80
2018-09-19T14:22:10.035Z,28.90
2018-09-19T14:24:50.867Z,28.90
2018-09-19T14:27:31.868Z,28.80
2018-09-19T14:30:12.591Z,28.80
2018-09-19T14:32:53.335Z,28.70
2018-09-19T14:35:34.574Z,28.70
2018-09-19T14:38:15.152Z,28.60
2018-09-19T14:40:55.672Z,28.50
2018-09-19T14:43:36.344Z,28.40
2018-09-19T14:46:17.451Z,28.30
2018-09-19T14:48:58.276Z,28.20
2018-09-19T14:51:39.163Z,28.10
2018-09-19T14:54:20.257Z,28.00
2018-09-19T14:57:01.575Z,27.90
2018-09-19T14:59:42.539Z,27.90
2018-09-19T15:02:23.287Z,27.80
2018-09-19T15:05:04.448Z,27.80
2018-09-19T15:07:45.296Z,27.70
2018-09-19T15:10:26.251Z,27.70
2018-09-19T15:13:06.867Z,27.60
2018-09-19T15:15:47.491Z,27.50
2018-09-19T15:18:28.344Z,27.40
2018-09-19T15:21:09.211Z,27.40
2018-09-19T15:23:50.087Z,27.40
2018-09-19T15:26:30.825Z,27.30
2018-09-19T15:29:11.508Z,27.20
2018-09-19T15:31:52.527Z,27.20
2018-09-19T15:34:33.276Z,27.20
2018-09-19T15:37:14.004Z,27.10
2018-09-19T15:39:54.896Z,27.10
2018-09-19T15:42:35.642Z,27.10
2018-09-19T15:45:16.433Z,27.00
2018-09-19T15:47:57.231Z,27.00
2018-09-19T15:50:37.836Z,27.00
2018-09-19T15:53:18.624Z,27.00
2018-09-19T15:55:59.748Z,26.90
2018-09-19T15:58:40.415Z,26.80
2018-09-19T16:01:21.715Z,26.80
2018-09-19T16:04:02.424Z,26.80
2018-09-19T16:06:43.276Z,26.70
2018-09-19T16:09:24.498Z,26.70
2018-09-19T16:12:05.171Z,26.70
2018-09-19T16:14:46.912Z,26.70
2018-09-19T16:17:28.019Z,26.70
2018-09-19T16:20:09.185Z,26.70
2018-09-19T16:22:49.963Z,26.70
2018-09-19T16:25:30.729Z,26.70
2018-09-19T16:28:11.999Z,26.60
2018-09-19T16:30:52.699Z,26.60
2018-09-19T16:33:33.616Z,26.60
2018-09-19T16:36:14.467Z,26.60
2018-09-19T16:38:55.764Z,26.50
2018-09-19T16:41:37.228Z,26.50
2018-09-19T16:44:18.445Z,26.50
2018-09-19T16:46:59.617Z,26.50
2018-09-19T16:49:40.484Z,26.50
2018-09-19T16:52:21.219Z,26.50
2018-09-19T16:55:01.769Z,26.40
2018-09-19T16:57:42.735Z,26.40
2018-09-19T17:00:23.681Z,26.30
2018-09-19T17:03:04.199Z,26.30
2018-09-19T17:05:45.195Z,26.20
2018-09-19T17:08:26.051Z,26.20
2018-09-19T17:11:06.927Z,26.20
2018-09-19T17:13:47.779Z,26.20
2018-09-19T17:16:28.899Z,26.20
2018-09-19T17:19:09.964Z,26.10
2018-09-19T17:21:50.979Z,26.10
2018-09-19T17:24:31.868Z,26.10
2018-09-19T17:27:13.021Z,26.10
2018-09-19T17:29:53.467Z,26.00
2018-09-19T17:32:34.413Z,26.00
2018-09-19T17:35:15.287Z,26.00
2018-09-19T17:37:56.207Z,25.90
2018-09-19T17:40:36.900Z,25.90
2018-09-19T17:43:17.795Z,25.80
2018-09-19T17:45:58.519Z,25.80
2018-09-19T17:48:39.373Z,25.70
2018-09-19T17:51:20.024Z,25.70
2018-09-19T17:54:01.615Z,25.70
2018-09-19T17:56:42.101Z,25.60
2018-09-19T17:59:22.975Z,25.60
2018-09-19T18:02:03.788Z,25.50
2018-09-19T18:04:44.247Z,25.50
2018-09-19T18:07:25.084Z,25.40
2018-09-19T18:10:11.871Z,25.40
2018-09-19T18:12:53.171Z,25.40
2018-09-19T18:15:34.021Z,25.30
2018-09-19T18:18:14.860Z,25.30
2018-09-19T18:20:55.410Z,25.20
2018-09-19T18:23:36.368Z,25.20
2018-09-19T18:26:17.192Z,25.20
2018-09-19T18:28:58.016Z,25.20
2018-09-19T18:31:39.102Z,25.10
2018-09-19T18:34:20.179Z,25.10
2018-09-19T18:37:01.847Z,25.10
2018-09-19T18:39:42.512Z,25.10
2018-09-19T18:42:23.359Z,25.10
2018-09-19T18:45:04.851Z,25.00
2018-09-19T18:47:45.980Z,25.00
2018-09-19T18:50:26.563Z,25.00
2018-09-19T18:53:07.552Z,25.00
2018-09-19T18:55:48.281Z,24.90
2018-09-19T18:58:28.971Z,24.90
2018-09-19T19:01:10.123Z,24.90
2018-09-19T19:03:51.448Z,24.90
2018-09-19T19:06:32.417Z,24.80
2018-09-19T19:09:13.564Z,24.80
2018-09-19T19:11:54.718Z,24.70
2018-09-19T19:14:35.669Z,24.70
2018-09-19T19:17:16.417Z,24.70
2018-09-19T19:19:57.191Z,24.70
2018-09-19T19:22:37.904Z,24.70
2018-09-19T19:25:18.515Z,24.60
2018-09-19T19:27:59.410Z,24.60
2018-09-19T19:30:40.625Z,24.60
2018-09-19T19:33:21.690Z,24.60
2018-09-19T19:36:02.968Z,24.60
2018-09-19T19:38:44.276Z,24.60
2018-09-19T19:41:25.364Z,24.60
2018-09-19T19:44:06.537Z,24.60
2018-09-19T19:46:47.856Z,24.60
2018-09-19T19:49:28.296Z,24.50
2018-09-19T19:52:09.555Z,24.50
2018-09-19T19:54:50.308Z,24.50
2018-09-19T19:57:31.389Z,24.40
2018-09-19T20:00:12.793Z,24.40
2018-09-19T20:02:53.973Z,24.40
2018-09-19T20:05:34.575Z,24.40
2018-09-19T20:08:15.312Z,24.40
2018-09-19T20:10:56.136Z,24.40
2018-09-19T20:13:36.836Z,24.40
2018-09-19T20:16:17.705Z,24.30
2018-09-19T20:18:58.528Z,24.30
2018-09-19T20:21:39.307Z,24.30
2018-09-19T20:24:19.840Z,24.30
2018-09-19T20:27:00.839Z,24.30
2018-09-19T20:29:41.880Z,24.30
2018-09-19T20:32:22.484Z,24.30
2018-09-19T20:35:03.611Z,24.20
2018-09-19T20:37:44.505Z,24.20
2018-09-19T20:40:25.083Z,24.20
2018-09-19T20:43:06.256Z,24.10
2018-09-19T20:45:47.164Z,24.10
2018-09-19T20:48:28.296Z,24.10
2018-09-19T20:51:09.227Z,24.10
2018-09-19T20:53:50.151Z,24.00
2018-09-19T20:56:31.599Z,24.00
2018-09-19T20:59:12.501Z,24.00
2018-09-19T21:01:53.564Z,23.90
2018-09-19T21:04:35.399Z,23.90
2018-09-19T21:07:16.768Z,23.90
2018-09-19T21:09:58.003Z,23.90
2018-09-19T21:12:39.408Z,23.90
2018-09-19T21:15:20.203Z,23.90
2018-09-19T21:18:01.248Z,23.90
2018-09-19T21:20:41.832Z,23.90
2018-09-19T21:23:22.589Z,23.90
2018-09-19T21:26:03.583Z,23.90
2018-09-19T21:28:44.296Z,23.90
2018-09-19T21:31:25.036Z,23.90
2018-09-19T21:34:05.731Z,23.90
2018-09-19T21:36:46.716Z,23.90
2018-09-19T21:39:27.540Z,23.90
2018-09-19T21:42:08.324Z,23.90
2018-09-19T21:44:49.325Z,24.00
2018-09-19T21:47:29.992Z,24.00
2018-09-19T21:50:10.728Z,24.00
2018-09-19T21:52:51.792Z,24.00
2018-09-19T21:55:32.591Z,24.00
2018-09-19T21:58:13.211Z,24.00
2018-09-19T22:01:00.155Z,24.10
2018-09-19T22:03:41.988Z,24.10
2018-09-19T22:06:22.469Z,24.10
2018-09-19T22:09:03.412Z,24.20
2018-09-19T22:11:44.376Z,24.20
2018-09-19T22:14:25.485Z,24.20
2018-09-19T22:17:06.465Z,24.20
2018-09-19T22:19:47.335Z,24.20
2018-09-19T22:22:28.200Z,24.20
2018-09-19T22:25:08.880Z,24.20
2018-09-19T22:27:49.664Z,24.10
2018-09-19T22:30:30.163Z,24.10
2018-09-19T22:33:10.943Z,24.10
2018-09-19T22:35:51.793Z,24.10
2018-09-19T22:38:32.663Z,24.10
2018-09-19T22:41:13.280Z,24.00
2018-09-19T22:43:54.180Z,24.10
2018-09-19T22:46:35.151Z,24.10
2018-09-19T22:49:16.084Z,24.10
2018-09-19T22:51:56.872Z,24.10
2018-09-19T22:54:37.905Z,24.10
2018-09-19T22:57:18.612Z,24.10
2018-09-19T22:59:59.188Z,24.10
2018-09-19T23:02:39.987Z,24.10
2018-09-19T23:05:20.740Z,24.10
2018-09-19T23:08:01.704Z,24.10
2018-09-19T23:10:42.581Z,24.10
2018-09-19T23:13:23.708Z,24.10
2018-09-19T23:16:04.566Z,24.10
2018-09-19T23:18:45.951Z,24.10
2018-09-19T23:21:27.079Z,24.10
2018-09-19T23:24:07.996Z,24.10
2018-09-19T23:26:48.890Z,24.10
2018-09-19T23:29:30.558Z,24.10
2018-09-19T23:32:11.999Z,24.10
2018-09-19T23:34:52.992Z,24.00
2018-09-19T23:37:33.775Z,24.00
2018-09-19T23:40:14.595Z,24.00
2018-09-19T23:42:55.420Z,24.00
2018-09-19T23:45:36.216Z,24.00
2018-09-19T23:48:17.040Z,23.90
2018-09-19T23:50:57.884Z,23.90
2018-09-19T23:53:38.547Z,23.90
2018-09-19T23:56:19.245Z,23.90
2018-09-19T23:59:00.115Z,23.90
